createdAt,value
2023-02-06T19:07:52.566Z,1023.91
2023-02-06T19:08:53.561Z,1023.88
2023-02-06T19:09:53.591Z,1023.96
2023-02-06T19:10:53.797Z,1023.91
2023-02-06T19:11:53.730Z,1023.89
2023-02-06T19:12:53.792Z,1023.88
2023-02-06T19:13:53.890Z,1023.91
2023-02-06T19:14:53.740Z,1023.88
2023-02-06T19:15:53.891Z,1023.88
2023-02-06T19:16:53.753Z,1023.88
2023-02-06T19:17:53.889Z,1023.93
2023-02-06T19:18:53.883Z,1023.96
2023-02-06T19:19:53.939Z,1023.93
2023-02-06T19:20:53.931Z,1023.95
2023-02-06T19:21:53.903Z,1023.95
2023-02-06T19:22:53.951Z,1023.91
2023-02-06T19:23:53.975Z,1023.89
2023-02-06T19:24:53.883Z,1023.92
2023-02-06T19:25:53.903Z,1023.88
2023-02-06T19:26:53.804Z,1023.92
2023-02-06T19:27:53.791Z,1023.90
2023-02-06T19:28:53.877Z,1023.89
2023-02-06T19:29:53.833Z,1023.91
2023-02-06T19:30:53.833Z,1023.84
2023-02-06T19:31:53.835Z,1023.90
2023-02-06T19:32:53.804Z,1023.91
2023-02-06T19:33:53.921Z,1023.96
2023-02-06T19:34:53.777Z,1023.92
2023-02-06T19:35:53.864Z,1023.95
2023-02-06T19:36:53.731Z,1023.93
2023-02-06T19:37:53.758Z,1023.86
2023-02-06T19:38:53.691Z,1023.90
2023-02-06T19:39:53.730Z,1023.91
2023-02-06T19:40:53.605Z,1023.94
2023-02-06T19:41:53.606Z,1023.99
2023-02-06T19:42:53.627Z,1024.03
2023-02-06T19:43:53.552Z,1024.02
2023-02-06T19:44:53.711Z,1024.01
2023-02-06T19:45:53.525Z,1024.03
2023-02-06T19:46:53.527Z,1024.04
2023-02-06T19:47:53.556Z,1024.04
2023-02-06T19:48:53.402Z,1024.09
2023-02-06T19:49:53.370Z,1024.07
2023-02-06T19:50:53.370Z,1024.07
2023-02-06T19:51:53.409Z,1024.06
2023-02-06T19:52:53.328Z,1024.08
2023-02-06T19:53:53.340Z,1024.03
2023-02-06T19:54:53.303Z,1024.03
2023-02-06T19:55:53.213Z,1024.03
2023-02-06T19:56:53.201Z,1024.04
2023-02-06T19:57:53.139Z,1024.07
2023-02-06T19:58:53.199Z,1024.06
2023-02-06T19:59:53.216Z,1024.08
2023-02-06T20:00:53.078Z,1024.03
2023-02-06T20:01:53.090Z,1024.02
2023-02-06T20:02:53.069Z,1024.07
2023-02-06T20:03:53.016Z,1024.08
2023-02-06T20:04:53.015Z,1024.01
2023-02-06T20:05:28.966Z,102402.29
2023-02-06T20:06:29.000Z,102403.75
2023-02-06T20:07:28.903Z,102408.54
2023-02-06T20:08:28.881Z,102406.09
2023-02-06T20:09:28.818Z,102410.28
2023-02-06T20:10:28.847Z,102415.46
2023-02-06T20:11:28.856Z,102412.21
2023-02-06T20:12:28.745Z,102418.51
2023-02-06T20:13:28.724Z,102420.37
2023-02-06T20:14:28.707Z,102421.64
2023-02-06T20:15:28.743Z,102414.78
2023-02-06T20:16:28.650Z,102415.54
2023-02-06T20:17:28.682Z,102416.65
2023-02-06T20:18:28.630Z,102412.26
2023-02-06T20:19:28.539Z,102412.82
2023-02-06T20:20:28.626Z,102415.98
2023-02-06T20:21:28.677Z,102417.46
2023-02-06T20:22:28.551Z,102421.29
2023-02-06T20:23:28.581Z,102424.68
2023-02-06T20:24:28.486Z,102424.52
2023-02-06T20:25:28.485Z,102428.53
2023-02-06T20:26:28.442Z,102428.45
2023-02-06T20:27:28.471Z,102422.58
2023-02-06T20:28:28.392Z,102422.84
2023-02-06T20:29:28.521Z,102422.8
2023-02-06T20:30:29.347Z,102424.75
2023-02-06T20:31:28.455Z,102417.73
2023-02-06T20:32:30.358Z,102418.2
2023-02-06T20:33:28.344Z,102418.5
2023-02-06T20:34:29.328Z,102417.75
2023-02-06T20:35:28.431Z,102419.06
2023-02-06T20:36:28.336Z,102410.15
2023-02-06T20:37:28.212Z,102417.42
2023-02-06T20:38:28.189Z,102415.34
2023-02-06T20:39:28.173Z,102415.85
2023-02-06T20:40:28.118Z,102420.75
2023-02-06T20:41:28.186Z,102423.75
2023-02-06T20:42:28.104Z,102422.39
2023-02-06T20:43:28.127Z,102421.89
2023-02-06T20:44:28.100Z,102416.7
2023-02-06T20:45:28.068Z,102417.71
2023-02-06T20:46:28.959Z,102421.85
2023-02-06T20:47:28.006Z,102421.34
2023-02-06T20:48:27.881Z,102419.49
2023-02-06T20:49:28.012Z,102419.65
2023-02-06T20:50:30.348Z,102419.57
2023-02-06T20:51:28.129Z,102417.54
2023-02-06T20:52:27.890Z,102420.57
2023-02-06T20:53:27.848Z,102417.87
2023-02-06T20:54:27.784Z,102428
2023-02-06T20:55:27.857Z,102419.74
2023-02-06T20:56:27.870Z,102424.64
2023-02-06T20:57:27.784Z,102417.75
2023-02-06T20:58:27.740Z,102418.64
2023-02-06T20:59:27.670Z,102425.18
2023-02-06T21:00:27.689Z,102422.7
2023-02-06T21:01:27.724Z,102425.9
2023-02-06T21:02:27.598Z,102424.39
2023-02-06T21:03:27.599Z,102426.25
2023-02-06T21:04:27.583Z,102424.42
2023-02-06T21:05:27.948Z,102426.57
2023-02-06T21:06:27.594Z,102424.68
2023-02-06T21:07:27.550Z,102425.53
2023-02-06T21:08:27.540Z,102425.56
2023-02-06T21:09:27.539Z,102429.23
2023-02-06T21:10:27.459Z,102427.89
2023-02-06T21:11:27.568Z,102432.1
2023-02-06T21:12:59.474Z,1024.39
2023-02-06T21:14:00.533Z,1024.38
2023-02-06T21:15:00.676Z,1024.39
2023-02-06T21:16:00.997Z,1024.39
2023-02-06T21:17:00.897Z,1024.42
2023-02-06T21:18:00.895Z,1024.40
2023-02-06T21:19:01.015Z,1024.39
2023-02-06T21:20:01.176Z,1024.43
2023-02-06T21:21:01.146Z,1024.39
2023-02-06T21:22:01.103Z,1024.39
2023-02-06T21:23:01.347Z,1024.35
2023-02-06T21:24:01.394Z,1024.33
2023-02-06T21:25:01.426Z,1024.32
2023-02-06T21:26:01.490Z,1024.36
2023-02-06T21:27:01.592Z,1024.35
2023-02-06T21:28:01.714Z,1024.37
2023-02-06T21:29:01.848Z,1024.39
2023-02-06T21:30:01.911Z,1024.41
2023-02-06T21:31:02.008Z,1024.45
2023-02-06T21:32:13.215Z,1024.46
2023-02-06T21:33:02.198Z,1024.47
2023-02-06T21:34:02.238Z,1024.45
2023-02-06T21:35:02.431Z,1024.44
2023-02-06T21:36:02.589Z,1024.49
2023-02-06T21:37:04.440Z,1024.44
2023-02-06T21:38:02.733Z,1024.45
2023-02-06T21:39:02.720Z,1024.44
2023-02-06T21:40:02.822Z,1024.50
2023-02-06T21:41:02.839Z,1024.54
2023-02-06T21:42:03.007Z,1024.51
2023-02-06T21:43:03.046Z,1024.54
2023-02-06T21:44:03.241Z,1024.49
2023-02-06T21:45:03.281Z,1024.53
2023-02-06T21:46:03.345Z,1024.55
2023-02-06T21:47:03.481Z,1024.56
2023-02-06T21:48:03.549Z,1024.57
2023-02-06T21:49:03.682Z,1024.57
2023-02-06T21:50:03.698Z,1024.63
2023-02-06T21:51:03.848Z,1024.57
2023-02-06T21:52:03.892Z,1024.56
2023-02-06T21:53:04.017Z,1024.59
2023-02-06T21:54:04.078Z,1024.57
2023-02-06T21:55:05.606Z,1024.59
2023-02-06T21:56:04.267Z,1024.60
2023-02-06T21:57:04.397Z,1024.61
2023-02-06T21:58:04.502Z,1024.60
2023-02-06T21:59:04.552Z,1024.65
2023-02-06T22:00:04.656Z,1024.62
2023-02-06T22:01:04.744Z,1024.68
2023-02-06T22:02:04.785Z,1024.64
2023-02-06T22:03:05.105Z,1024.67
2023-02-06T22:04:05.009Z,1024.73
2023-02-06T22:05:05.201Z,1024.79
2023-02-06T22:06:05.204Z,1024.76
2023-02-06T22:07:05.289Z,1024.81
2023-02-06T22:08:05.358Z,1024.79
2023-02-06T22:09:05.510Z,1024.79
2023-02-06T22:10:05.420Z,1024.81
2023-02-06T22:11:05.577Z,1024.82
2023-02-06T22:12:05.603Z,1024.94
2023-02-06T22:13:05.850Z,1024.92
2023-02-06T22:14:05.896Z,1024.87
2023-02-06T22:15:05.953Z,1024.86
2023-02-06T22:16:05.985Z,1024.90
2023-02-06T22:17:06.078Z,1024.87
2023-02-06T22:18:06.213Z,1024.91
2023-02-06T22:19:06.196Z,1024.89
2023-02-06T22:20:06.384Z,1024.89
2023-02-06T22:21:06.437Z,1024.91
2023-02-06T22:22:06.540Z,1024.92
2023-02-06T22:23:06.633Z,1024.96
2023-02-06T22:24:06.669Z,1025.01
2023-02-06T22:25:06.777Z,1024.97
2023-02-06T22:26:06.849Z,1025.03
2023-02-06T22:27:06.874Z,1025.05
2023-02-06T22:28:07.001Z,1025.06
2023-02-06T22:29:07.121Z,1025.05
2023-02-06T22:30:07.176Z,1025.03
2023-02-06T22:31:07.318Z,1025.07
2023-02-06T22:32:07.301Z,1025.06
2023-02-06T22:33:07.349Z,1025.07
2023-02-06T22:34:07.471Z,1025.07
2023-02-06T22:35:07.503Z,1025.08
2023-02-06T22:36:07.647Z,1025.07
2023-02-06T22:37:07.725Z,1025.11
2023-02-06T22:38:08.023Z,1025.12
2023-02-06T22:39:07.832Z,1025.10
2023-02-06T22:40:07.973Z,1025.12
2023-02-06T22:41:08.758Z,1025.07
2023-02-06T22:42:08.121Z,1025.05
2023-02-06T22:43:08.208Z,1025.06
2023-02-06T22:44:08.276Z,1025.07
2023-02-06T22:45:08.307Z,1025.07
2023-02-06T22:46:08.397Z,1025.02
2023-02-06T22:47:08.465Z,1025.03
2023-02-06T22:48:08.612Z,1025.04
2023-02-06T22:49:08.715Z,1025.05
2023-02-06T22:50:08.704Z,1025.10
2023-02-06T22:51:08.877Z,1025.02
2023-02-06T22:52:08.907Z,1025.08
2023-02-06T22:53:09.006Z,1025.06
2023-02-06T22:54:09.028Z,1025.03
2023-02-06T22:55:09.247Z,1025.06
2023-02-06T22:56:09.282Z,1025.04
